Time;durP1;ratioP1;P1;durP2;ratioP2;P2;SDS_P1;SDS_P2;PMS_P1;PMS_P2;Temp;Humidity;BMP_temperature;BMP_pressure;BME280_temperature;BME280_humidity;BME280_pressure;Samples;Min_cycle;Max_cycle;Signal;HPM_P1;HPM_P2
2021/03/05 00:02:02;;;;;;;42.13;27.27;;;;;;;6.80;65.69;99931.11;1770803;80;21327;-54
2021/03/05 00:05:07;;;;;;;39.08;25.25;;;;;;;6.76;65.74;99931.61;1770689;81;21217;-53
2021/03/05 00:08:16;;;;;;;46.83;28.07;;;;;;;6.73;65.78;99938.73;1770906;81;21180;-54
2021/03/05 00:11:22;;;;;;;48.10;30.27;;;;;;;6.69;65.74;99932.77;1771219;80;21227;-54
2021/03/05 00:14:27;;;;;;;58.87;34.08;;;;;;;6.65;65.77;99938.20;1770971;80;21267;-55
2021/03/05 00:17:31;;;;;;;45.17;27.55;;;;;;;6.61;65.79;99943.59;1771359;80;21220;-54
2021/03/05 00:20:38;;;;;;;43.70;27.67;;;;;;;6.56;65.76;99947.33;1771089;80;21209;-54
2021/03/05 00:23:44;;;;;;;48.92;31.10;;;;;;;6.51;65.80;99955.11;1770767;81;21220;-54
2021/03/05 00:26:50;;;;;;;46.02;28.02;;;;;;;6.50;65.87;99957.98;1770717;81;21276;-54
2021/03/05 00:29:56;;;;;;;42.65;27.73;;;;;;;6.47;65.90;99959.15;1770972;81;21709;-55
2021/03/05 00:33:02;;;;;;;48.23;30.25;;;;;;;6.47;65.90;99956.95;1770841;81;21215;-54
2021/03/05 00:36:09;;;;;;;45.35;27.73;;;;;;;6.43;65.86;99956.42;1770430;81;21698;-54
2021/03/05 00:39:14;;;;;;;44.58;26.45;;;;;;;6.38;65.82;99967.41;1770768;81;21212;-54
2021/03/05 00:42:20;;;;;;;45.60;26.82;;;;;;;6.26;65.73;99961.40;1770870;81;21809;-54
2021/03/05 00:45:28;;;;;;;43.00;25.62;;;;;;;6.19;65.95;99960.81;1770752;81;21410;-54
2021/03/05 00:48:34;;;;;;;39.45;24.27;;;;;;;6.14;66.07;99964.01;1770901;81;21296;-54
2021/03/05 00:51:42;;;;;;;39.13;24.18;;;;;;;6.13;66.17;99973.18;1770749;80;21205;-54
2021/03/05 00:54:50;;;;;;;44.13;26.23;;;;;;;6.10;66.22;99967.53;1770871;80;21229;-54
2021/03/05 00:57:56;;;;;;;42.43;27.35;;;;;;;6.09;66.24;99963.63;1771060;80;21224;-55
2021/03/05 01:01:02;;;;;;;44.93;28.02;;;;;;;6.10;66.46;99971.61;1771384;80;21193;-54
2021/03/05 01:04:09;;;;;;;52.03;31.80;;;;;;;6.16;66.65;99965.20;1770735;80;21792;-55
2021/03/05 01:07:16;;;;;;;49.70;28.90;;;;;;;6.25;66.65;99970.55;1770942;80;21276;-54
2021/03/05 01:10:22;;;;;;;43.90;28.52;;;;;;;6.29;66.53;99977.39;1770588;80;21213;-54
2021/03/05 01:13:27;;;;;;;47.83;28.60;;;;;;;6.32;66.56;99983.86;1770806;81;21320;-54
2021/03/05 01:16:32;;;;;;;58.78;33.98;;;;;;;6.39;66.57;99999.03;1770676;81;21766;-54
2021/03/05 01:19:39;;;;;;;55.43;32.40;;;;;;;6.41;66.60;99991.55;1770912;80;21193;-54
2021/03/05 01:22:52;;;;;;;46.48;27.55;;;;;;;6.41;66.57;100003.78;1770868;80;21252;-54
2021/03/05 01:25:59;;;;;;;45.23;28.87;;;;;;;6.38;66.58;99995.95;1770848;81;21689;-55
2021/03/05 01:29:05;;;;;;;51.58;30.75;;;;;;;6.32;66.63;99996.09;1770760;80;21240;-55
2021/03/05 01:32:12;;;;;;;47.48;29.32;;;;;;;6.25;66.78;99999.08;1771027;80;21292;-54
2021/03/05 01:35:22;;;;;;;48.95;29.12;;;;;;;6.20;66.93;99996.51;1770879;80;21263;-54
2021/03/05 01:38:28;;;;;;;51.05;30.97;;;;;;;6.15;67.09;99987.97;1770606;81;21241;-56
2021/03/05 01:41:34;;;;;;;46.28;28.95;;;;;;;6.17;67.27;100007.16;1770718;81;21200;-53
2021/03/05 01:44:40;;;;;;;45.55;28.30;;;;;;;6.14;67.25;99997.97;1770684;81;21710;-54
2021/03/05 01:47:45;;;;;;;49.98;30.60;;;;;;;6.15;67.35;99990.69;1770959;80;21312;-55
2021/03/05 01:51:16;;;;;;;44.45;28.83;;;;;;;6.16;67.38;99995.09;1770980;80;21280;-54
2021/03/05 01:54:21;;;;;;;45.95;29.65;;;;;;;6.16;67.47;99997.81;1771008;80;21721;-54
2021/03/05 01:57:27;;;;;;;47.58;28.47;;;;;;;6.18;67.49;100000.74;1770918;80;21256;-54
2021/03/05 02:00:49;;;;;;;49.73;31.07;;;;;;;6.24;67.42;100006.90;1770365;80;21377;-54
2021/03/05 02:03:56;;;;;;;46.68;29.23;;;;;;;6.31;67.33;100019.36;1771053;80;21220;-53
2021/03/05 02:07:02;;;;;;;50.65;30.90;;;;;;;6.32;67.13;100022.41;1771398;80;21267;-54
2021/03/05 02:10:09;;;;;;;49.00;30.02;;;;;;;6.31;67.07;100015.28;1771360;80;21240;-55
2021/03/05 02:13:16;;;;;;;50.55;31.15;;;;;;;6.32;67.12;100021.05;1771496;80;21414;-54
2021/03/05 02:16:32;;;;;;;51.68;31.97;;;;;;;6.37;67.06;100018.22;1770532;80;21315;-55
2021/03/05 02:20:18;;;;;;;51.00;30.25;;;;;;;6.43;66.89;100018.08;1770457;80;21391;-55
2021/03/05 02:24:07;;;;;;;50.15;30.27;;;;;;;6.45;66.63;100025.58;1771027;80;21280;-53
2021/03/05 02:27:33;;;;;;;50.38;30.60;;;;;;;6.43;66.44;100033.89;1770922;80;21201;-53
2021/03/05 02:31:13;;;;;;;49.18;29.63;;;;;;;6.41;66.09;100050.86;1770234;80;21256;-53
2021/03/05 02:34:27;;;;;;;53.38;31.35;;;;;;;6.37;65.85;100054.06;1770764;80;21201;-53
2021/03/05 02:37:36;;;;;;;49.38;30.27;;;;;;;6.33;65.76;100058.95;1770167;81;21228;-53
2021/03/05 02:40:49;;;;;;;51.45;30.55;;;;;;;6.30;65.82;100058.41;1770719;80;21243;-54
2021/03/05 02:43:55;;;;;;;53.08;30.48;;;;;;;6.25;65.86;100061.59;1771166;80;21718;-54
2021/03/05 02:47:04;;;;;;;55.00;32.95;;;;;;;6.17;65.99;100049.28;1770703;81;21695;-54
2021/03/05 02:50:10;;;;;;;53.75;31.87;;;;;;;6.10;65.97;100049.58;1770919;80;21711;-55
2021/03/05 02:53:19;;;;;;;55.58;31.85;;;;;;;6.06;66.02;100062.61;1771181;78;21256;-55
2021/03/05 02:56:25;;;;;;;51.48;29.92;;;;;;;6.02;65.92;100061.73;1770694;80;21244;-54
2021/03/05 02:59:30;;;;;;;50.50;29.92;;;;;;;5.98;65.81;100064.38;1770802;80;21158;-55
2021/03/05 03:02:35;;;;;;;56.60;30.82;;;;;;;5.94;65.87;100070.66;1763967;81;21373;-55
2021/03/05 03:05:42;;;;;;;54.93;32.00;;;;;;;5.94;65.92;100077.45;1770759;81;21196;-55
2021/03/05 03:08:48;;;;;;;53.90;31.07;;;;;;;5.90;66.08;100084.67;1771002;80;21212;-54
2021/03/05 03:11:56;;;;;;;54.58;31.37;;;;;;;5.88;66.24;100084.00;1770718;80;21162;-54
2021/03/05 03:15:01;;;;;;;52.48;30.65;;;;;;;5.81;66.39;100072.86;1770725;81;21189;-55
2021/03/05 03:18:11;;;;;;;55.60;31.82;;;;;;;5.80;66.42;100086.59;1770660;81;21227;-54
2021/03/05 03:21:17;;;;;;;54.30;31.23;;;;;;;5.75;66.44;100084.83;1770788;81;21516;-55
2021/03/05 03:24:24;;;;;;;55.98;30.40;;;;;;;5.74;66.50;100081.77;1770635;81;21264;-55
2021/03/05 03:27:30;;;;;;;50.28;30.23;;;;;;;5.78;66.48;100079.09;1770713;81;21275;-53
2021/03/05 03:30:35;;;;;;;55.28;30.52;;;;;;;5.82;66.29;100080.02;1770754;81;21571;-53
2021/03/05 03:33:42;;;;;;;52.83;29.10;;;;;;;5.87;66.13;100072.76;1770921;81;21229;-53
2021/03/05 03:36:48;;;;;;;58.35;32.10;;;;;;;5.90;65.82;100081.95;1770628;81;21323;-54
2021/03/05 03:39:57;;;;;;;52.43;29.70;;;;;;;5.89;65.46;100088.41;1771010;80;21256;-53
2021/03/05 03:43:03;;;;;;;51.73;29.25;;;;;;;5.85;65.20;100081.59;1770777;80;21402;-54
2021/03/05 03:46:08;;;;;;;54.00;29.90;;;;;;;5.81;65.10;100082.36;1770856;81;21575;-53
2021/03/05 03:49:17;;;;;;;52.27;28.35;;;;;;;5.81;64.98;100075.56;1770760;80;21869;-53
2021/03/05 03:52:45;;;;;;;49.60;26.95;;;;;;;5.81;64.71;100082.36;1770920;81;21228;-53
2021/03/05 03:55:51;;;;;;;51.77;28.23;;;;;;;5.83;64.56;100084.46;1770406;79;21305;-54
2021/03/05 03:58:58;;;;;;;52.20;29.70;;;;;;;5.84;64.44;100092.08;1770551;80;21229;-54
2021/03/05 04:02:04;;;;;;;52.08;28.57;;;;;;;5.84;64.34;100092.08;1770448;80;21296;-57
2021/03/05 04:05:12;;;;;;;53.33;27.73;;;;;;;5.88;64.21;100096.22;1770914;80;21343;-57
2021/03/05 04:08:17;;;;;;;53.20;26.85;;;;;;;5.89;64.04;100094.70;1770852;80;21762;-57
2021/03/05 04:11:24;;;;;;;53.95;27.93;;;;;;;5.94;63.86;100096.46;1770568;81;21228;-57
2021/03/05 04:14:30;;;;;;;50.95;29.50;;;;;;;5.94;63.65;100092.39;1770675;80;21467;-57
2021/03/05 04:17:36;;;;;;;53.45;28.80;;;;;;;5.97;63.54;100092.57;1770432;80;21217;-57
2021/03/05 04:20:46;;;;;;;50.90;25.40;;;;;;;5.97;63.21;100099.36;1770615;80;21292;-57
2021/03/05 04:23:52;;;;;;;50.98;25.75;;;;;;;5.90;62.92;100098.25;1771007;80;21198;-57
2021/03/05 04:26:57;;;;;;;52.53;26.97;;;;;;;5.82;62.69;100109.02;1771662;80;21351;-58
2021/03/05 04:30:02;;;;;;;49.30;26.30;;;;;;;5.70;62.76;100104.79;1771069;80;21188;-57
2021/03/05 04:33:07;;;;;;;48.75;25.08;;;;;;;5.65;62.80;100107.10;1770210;80;21220;-58
2021/03/05 04:36:14;;;;;;;51.65;26.37;;;;;;;5.60;62.98;100110.27;1771096;80;21339;-58
2021/03/05 04:39:21;;;;;;;50.80;25.72;;;;;;;5.59;63.13;100110.42;1771491;80;21201;-57
2021/03/05 04:42:27;;;;;;;50.90;27.02;;;;;;;5.57;62.99;100109.72;1770837;80;21232;-58
2021/03/05 04:45:32;;;;;;;47.65;25.35;;;;;;;5.54;63.09;100119.52;1771191;80;21249;-58
2021/03/05 04:48:38;;;;;;;47.60;24.30;;;;;;;5.51;62.92;100130.68;1770555;81;21209;-59
2021/03/05 04:51:45;;;;;;;53.00;26.33;;;;;;;5.43;62.95;100138.72;1770786;80;21228;-57
2021/03/05 04:54:50;;;;;;;48.60;24.77;;;;;;;5.42;63.03;100142.45;1771340;80;21212;-59
2021/03/05 04:57:56;;;;;;;47.15;24.63;;;;;;;5.44;63.00;100154.84;1770685;81;21448;-58
2021/03/05 05:01:02;;;;;;;48.33;25.20;;;;;;;5.45;62.88;100151.64;1770907;81;21233;-58
2021/03/05 05:04:08;;;;;;;46.75;24.32;;;;;;;5.42;62.65;100166.88;1771307;80;22038;-58
2021/03/05 05:07:14;;;;;;;50.00;23.87;;;;;;;5.36;62.79;100176.45;1771123;80;21209;-58
2021/03/05 05:10:20;;;;;;;50.25;25.25;;;;;;;5.35;62.64;100180.18;1771025;80;21209;-59
2021/03/05 05:13:27;;;;;;;51.68;24.67;;;;;;;5.30;62.73;100187.03;1770984;80;21220;-57
2021/03/05 05:16:35;;;;;;;50.03;24.45;;;;;;;5.21;63.04;100182.01;1770874;81;21181;-58
2021/03/05 05:19:41;;;;;;;54.53;26.90;;;;;;;5.19;63.25;100196.70;1771085;80;21788;-59
2021/03/05 05:22:46;;;;;;;50.33;24.65;;;;;;;5.10;63.17;100206.59;1770844;80;21291;-58
2021/03/05 05:25:53;;;;;;;53.08;25.62;;;;;;;5.05;63.25;100186.31;1771076;80;21705;-58
2021/03/05 05:29:00;;;;;;;62.23;31.12;;;;;;;5.02;63.35;100211.02;1771596;80;21264;-59
2021/03/05 05:32:07;;;;;;;55.85;28.00;;;;;;;5.01;63.48;100204.73;1777606;79;21200;-58
2021/03/05 05:35:15;;;;;;;55.78;27.00;;;;;;;5.02;63.45;100212.38;1776470;79;21244;-59
2021/03/05 05:38:21;;;;;;;52.13;26.30;;;;;;;4.99;63.56;100218.09;1777623;79;21367;-58
2021/03/05 05:41:29;;;;;;;53.90;25.48;;;;;;;4.99;63.79;100214.89;1770620;81;21685;-59
2021/03/05 05:44:35;;;;;;;47.25;25.37;;;;;;;5.07;63.95;100220.94;1709378;82;21821;-58
2021/03/05 05:47:45;;;;;;;47.53;24.85;;;;;;;5.15;63.94;100227.86;1707411;82;21236;-58
2021/03/05 05:50:50;;;;;;;45.43;23.77;;;;;;;5.26;64.10;100237.19;1772302;79;21172;-58
2021/03/05 05:53:56;;;;;;;50.52;24.27;;;;;;;5.35;64.05;100243.95;1770197;79;21966;-56
2021/03/05 05:57:02;;;;;;;51.83;25.45;;;;;;;5.43;63.99;100248.16;1737278;80;21282;-58
2021/03/05 06:00:09;;;;;;;50.30;25.77;;;;;;;5.49;63.86;100245.34;1792370;79;21173;-57
2021/03/05 06:03:15;;;;;;;52.40;25.55;;;;;;;5.51;63.73;100256.42;1769644;81;21215;-57
2021/03/05 06:06:22;;;;;;;48.83;24.50;;;;;;;5.51;63.71;100254.20;1771366;81;21733;-57
2021/03/05 06:09:27;;;;;;;49.23;25.15;;;;;;;5.52;63.50;100264.91;1774770;79;21778;-57
2021/03/05 06:12:33;;;;;;;50.55;24.67;;;;;;;5.54;63.40;100263.41;1773834;79;21263;-57
2021/03/05 06:15:38;;;;;;;48.52;24.12;;;;;;;5.59;63.27;100261.98;1769884;81;22042;-58
2021/03/05 06:18:45;;;;;;;48.70;23.25;;;;;;;5.59;62.93;100270.61;1770496;81;21212;-57
2021/03/05 06:21:50;;;;;;;45.20;23.35;;;;;;;5.57;62.93;100265.33;1771653;81;21595;-57
2021/03/05 06:24:57;;;;;;;47.00;23.62;;;;;;;5.60;62.85;100265.52;1771619;81;21326;-57
2021/03/05 06:28:02;;;;;;;45.78;24.10;;;;;;;5.64;62.70;100271.03;1771041;81;21357;-57
2021/03/05 06:31:11;;;;;;;43.23;22.35;;;;;;;5.65;62.62;100272.24;1721567;81;21219;-57
2021/03/05 06:34:16;;;;;;;45.08;23.35;;;;;;;5.68;62.55;100273.79;1725885;82;21236;-56
2021/03/05 06:37:23;;;;;;;50.60;24.75;;;;;;;5.71;62.44;100284.36;1799017;79;21355;-56
2021/03/05 06:40:30;;;;;;;47.67;23.40;;;;;;;5.72;62.37;100284.73;1771146;81;21178;-57
2021/03/05 06:43:55;;;;;;;43.55;22.98;;;;;;;5.76;62.15;100282.06;1722253;81;21764;-56
2021/03/05 06:47:02;;;;;;;46.60;22.82;;;;;;;5.81;62.06;100285.19;1771655;79;21490;-56
2021/03/05 06:50:08;;;;;;;40.28;21.93;;;;;;;5.87;61.65;100282.77;1779378;79;21197;-57
2021/03/05 06:53:29;;;;;;;45.38;21.90;;;;;;;5.86;61.63;100285.64;1720192;80;21255;-56
2021/03/05 06:56:40;;;;;;;44.77;22.37;;;;;;;5.93;61.58;100286.77;1772443;79;21186;-57
2021/03/05 06:59:48;;;;;;;39.85;20.08;;;;;;;5.96;61.36;100295.45;1733991;80;21199;-57
2021/03/05 07:02:53;;;;;;;40.88;20.85;;;;;;;5.98;61.11;100295.30;1741890;81;21208;-57
2021/03/05 07:06:01;;;;;;;40.75;20.40;;;;;;;5.99;61.08;100295.68;1734193;82;21790;-57
2021/03/05 07:09:06;;;;;;;41.02;20.12;;;;;;;6.00;60.93;100294.17;1734370;81;21807;-58
2021/03/05 07:12:19;;;;;;;40.15;20.62;;;;;;;6.01;60.72;100297.72;1735000;81;21238;-57
2021/03/05 07:15:24;;;;;;;42.67;20.90;;;;;;;6.04;60.63;100287.95;1735107;82;21734;-56
2021/03/05 07:18:30;;;;;;;39.58;19.75;;;;;;;6.11;60.47;100289.04;1747601;81;21251;-56
2021/03/05 07:21:36;;;;;;;43.83;20.70;;;;;;;6.16;60.24;100288.09;1754993;81;21257;-57
2021/03/05 07:24:42;;;;;;;37.53;19.15;;;;;;;6.14;59.93;100290.09;1742899;81;21236;-58
2021/03/05 07:27:48;;;;;;;39.00;18.62;;;;;;;6.15;59.81;100295.91;1734890;82;21292;-58
2021/03/05 07:30:54;;;;;;;36.28;18.45;;;;;;;6.17;59.87;100293.03;1683406;84;21615;-58
2021/03/05 07:34:02;;;;;;;37.58;17.90;;;;;;;6.17;59.69;100294.39;1764955;81;21741;-58
2021/03/05 07:37:13;;;;;;;38.58;19.32;;;;;;;6.12;59.67;100297.53;1763576;81;21594;-57
2021/03/05 07:40:22;;;;;;;38.05;19.02;;;;;;;6.14;59.86;100298.25;1734686;82;21195;-56
2021/03/05 07:43:28;;;;;;;35.78;19.27;;;;;;;6.22;59.71;100298.84;1744800;81;21272;-56
2021/03/05 07:46:34;;;;;;;35.95;17.62;;;;;;;6.34;59.46;100298.53;1758043;81;21220;-57
2021/03/05 07:49:39;;;;;;;36.48;17.82;;;;;;;6.40;58.89;100307.43;1735225;81;21220;-56
2021/03/05 07:52:46;;;;;;;38.98;17.95;;;;;;;6.40;58.64;100315.59;1746562;81;21264;-57
2021/03/05 07:55:51;;;;;;;37.70;18.10;;;;;;;6.43;58.91;100308.98;1755658;81;21549;-57
2021/03/05 07:58:58;;;;;;;33.90;17.65;;;;;;;6.49;58.67;100311.09;1766466;78;21209;-58
2021/03/05 08:02:04;;;;;;;35.13;17.52;;;;;;;6.45;58.50;100310.56;1767159;80;21183;-57
2021/03/05 08:05:14;;;;;;;31.12;17.55;;;;;;;6.47;58.33;100304.44;1756278;81;21766;-58
2021/03/05 08:08:34;;;;;;;33.08;17.10;;;;;;;6.52;58.41;100299.41;1756407;81;21368;-56
2021/03/05 08:11:42;;;;;;;36.55;17.10;;;;;;;6.63;58.18;100314.68;1756341;81;21423;-57
2021/03/05 08:14:47;;;;;;;31.80;18.90;;;;;;;6.67;57.75;100319.66;1766190;81;21252;-57
2021/03/05 08:17:53;;;;;;;40.88;21.23;;;;;;;6.58;57.88;100315.11;1766153;80;21237;-57
2021/03/05 08:20:59;;;;;;;35.45;18.77;;;;;;;6.59;57.91;100326.36;1766083;81;21189;-57
2021/03/05 08:24:31;;;;;;;34.73;17.52;;;;;;;6.58;57.90;100320.55;1759349;80;21299;-58
2021/03/05 08:27:44;;;;;;;35.38;17.73;;;;;;;6.60;57.98;100321.27;1755957;81;21399;-57
2021/03/05 08:30:49;;;;;;;35.40;17.77;;;;;;;6.59;57.92;100315.48;1747975;82;21352;-55
2021/03/05 08:33:55;;;;;;;34.63;17.92;;;;;;;6.58;57.90;100317.00;1754005;81;21269;-56
2021/03/05 08:37:00;;;;;;;37.17;17.95;;;;;;;6.50;57.94;100324.53;1750870;81;21360;-57
2021/03/05 08:40:27;;;;;;;34.18;17.60;;;;;;;6.46;58.24;100325.86;1724002;80;21268;-56
2021/03/05 08:43:34;;;;;;;37.30;17.75;;;;;;;6.53;58.25;100326.98;1751122;81;21340;-57
2021/03/05 08:46:41;;;;;;;33.02;17.12;;;;;;;6.63;58.13;100317.41;1761200;81;21867;-56
2021/03/05 08:49:48;;;;;;;35.92;17.23;;;;;;;6.60;57.86;100330.78;1752823;81;21722;-57
2021/03/05 08:52:55;;;;;;;33.38;17.52;;;;;;;6.59;57.74;100329.08;1757435;81;21372;-57
2021/03/05 08:56:01;;;;;;;35.43;17.32;;;;;;;6.58;57.73;100342.83;1762189;81;21760;-57
2021/03/05 08:59:14;;;;;;;36.08;18.77;;;;;;;6.59;57.96;100341.81;1766091;80;21261;-57
2021/03/05 09:02:22;;;;;;;35.60;18.12;;;;;;;6.66;57.98;100340.21;1781260;79;22026;-57
2021/03/05 09:05:37;;;;;;;35.88;17.87;;;;;;;6.71;58.00;100331.93;1746667;81;21185;-57
2021/03/05 09:08:42;;;;;;;34.98;17.25;;;;;;;6.77;57.80;100332.67;1756377;81;21236;-58
2021/03/05 09:11:50;;;;;;;33.53;16.82;;;;;;;6.81;57.68;100328.66;1786220;79;21725;-58
2021/03/05 09:15:10;;;;;;;34.40;17.10;;;;;;;6.78;57.57;100326.73;1782717;79;21215;-56
2021/03/05 09:18:15;;;;;;;34.60;17.40;;;;;;;6.79;57.67;100333.88;1777344;79;21205;-56
2021/03/05 09:21:20;;;;;;;33.45;17.50;;;;;;;6.80;57.62;100332.36;1755758;81;21362;-57
2021/03/05 09:24:27;;;;;;;33.73;16.60;;;;;;;6.90;57.66;100349.98;1785265;79;21235;-56
2021/03/05 09:27:44;;;;;;;29.02;16.40;;;;;;;7.01;57.31;100344.33;1750013;81;21232;-57
2021/03/05 09:31:00;;;;;;;32.63;16.62;;;;;;;7.13;57.22;100341.25;1783826;79;21224;-56
2021/03/05 09:34:07;;;;;;;32.53;16.65;;;;;;;7.28;56.69;100347.84;1796251;79;21367;-57
2021/03/05 09:37:26;;;;;;;31.85;16.95;;;;;;;7.40;56.44;100349.30;1772462;78;21232;-58
2021/03/05 09:40:33;;;;;;;33.48;17.17;;;;;;;7.50;56.01;100341.92;1784112;79;21446;-57
2021/03/05 09:43:38;;;;;;;33.53;16.55;;;;;;;7.51;55.73;100342.78;1784391;79;21216;-57
2021/03/05 09:46:49;;;;;;;35.50;18.95;;;;;;;7.55;56.07;100355.92;1791561;79;21304;-58
2021/03/05 09:49:55;;;;;;;35.43;17.57;;;;;;;7.75;55.86;100357.11;1782395;79;21892;-55
2021/03/05 09:53:01;;;;;;;30.52;16.95;;;;;;;7.85;55.15;100344.25;1784854;79;21370;-57
2021/03/05 09:56:09;;;;;;;31.73;16.50;;;;;;;7.91;54.71;100340.38;1796255;79;21239;-56
2021/03/05 09:59:15;;;;;;;30.17;15.98;;;;;;;7.92;54.58;100339.35;1773838;79;21177;-56
2021/03/05 10:02:29;;;;;;;29.12;16.62;;;;;;;8.02;54.47;100346.06;1743642;79;21237;-57
2021/03/05 10:05:35;;;;;;;31.82;15.98;;;;;;;8.18;54.14;100347.00;1727674;81;21247;-57
2021/03/05 10:08:41;;;;;;;31.40;17.17;;;;;;;8.27;53.67;100345.22;1730534;81;21781;-56
2021/03/05 10:11:48;;;;;;;30.23;17.12;;;;;;;8.31;53.46;100343.89;1735956;81;21747;-57
2021/03/05 10:14:54;;;;;;;29.75;15.85;;;;;;;8.28;53.25;100334.15;1733469;81;21210;-57
2021/03/05 10:18:00;;;;;;;28.98;15.78;;;;;;;8.23;53.18;100347.94;1731877;81;21213;-46
2021/03/05 10:21:06;;;;;;;31.30;15.95;;;;;;;8.18;53.20;100344.27;1731610;81;21186;-42
2021/03/05 10:24:16;;;;;;;32.85;15.98;;;;;;;8.16;53.02;100345.47;1730257;81;21579;-44
2021/03/05 10:27:23;;;;;;;34.20;16.93;;;;;;;8.08;53.26;100343.55;1739358;81;21253;-37
2021/03/05 10:30:29;;;;;;;32.53;16.67;;;;;;;8.09;53.30;100344.38;1725579;81;21743;-42
2021/03/05 10:33:46;;;;;;;36.42;16.55;;;;;;;7.98;53.01;100344.66;1735006;81;21201;-44
2021/03/05 10:36:52;;;;;;;26.52;15.00;;;;;;;7.83;53.22;100343.05;1746057;81;21566;-44
2021/03/05 10:39:58;;;;;;;33.35;17.65;;;;;;;7.80;53.44;100349.31;1731743;81;21453;-46
2021/03/05 10:47:45;;;;;;;26.42;14.05;;;;;;;7.64;54.01;100345.97;1702883;83;21747;-54
2021/03/05 10:50:50;;;;;;;27.25;15.18;;;;;;;7.67;53.96;100344.28;1682096;84;22140;-54
2021/03/05 10:53:57;;;;;;;29.90;16.12;;;;;;;7.69;53.80;100341.39;1693305;83;21615;-55
2021/03/05 10:57:02;;;;;;;30.52;16.97;;;;;;;7.71;53.92;100338.84;1707467;83;21201;-54
2021/03/05 11:00:09;;;;;;;35.80;16.62;;;;;;;7.80;54.00;100332.44;1712355;83;21194;-54
2021/03/05 11:03:16;;;;;;;32.05;17.55;;;;;;;7.87;53.97;100325.84;1734192;80;21275;-53
2021/03/05 11:06:22;;;;;;;27.30;15.55;;;;;;;7.92;53.92;100323.50;1734585;82;21182;-53
2021/03/05 11:09:31;;;;;;;30.52;16.20;;;;;;;7.93;53.58;100330.15;1737966;82;21726;-55
2021/03/05 11:12:36;;;;;;;30.52;16.05;;;;;;;8.01;53.73;100332.10;1737772;82;21228;-54
2021/03/05 11:15:42;;;;;;;28.38;16.37;;;;;;;8.19;53.59;100333.73;1738206;81;21787;-55
2021/03/05 11:18:48;;;;;;;29.90;15.88;;;;;;;8.34;53.21;100334.02;1738518;81;21230;-54
2021/03/05 11:21:55;;;;;;;28.10;14.78;;;;;;;8.43;52.94;100333.90;1758742;81;21224;-55
2021/03/05 11:25:01;;;;;;;27.02;14.98;;;;;;;8.48;52.15;100326.59;1766131;81;21359;-54
2021/03/05 11:28:06;;;;;;;31.25;16.52;;;;;;;8.55;51.98;100326.25;1751215;81;21205;-55
2021/03/05 11:31:11;;;;;;;32.70;16.15;;;;;;;8.70;51.62;100330.95;1734917;82;21212;-54
2021/03/05 11:34:17;;;;;;;29.92;16.75;;;;;;;8.83;51.37;100326.38;1705855;84;21199;-55
2021/03/05 11:37:23;;;;;;;28.42;15.03;;;;;;;8.93;51.33;100325.70;1759542;81;21583;-55
2021/03/05 11:40:29;;;;;;;30.37;15.85;;;;;;;9.01;50.71;100322.99;1737510;81;21186;-55
2021/03/05 11:43:34;;;;;;;27.13;14.78;;;;;;;8.90;50.35;100326.04;1735479;81;21805;-55
2021/03/05 11:46:39;;;;;;;27.90;15.00;;;;;;;8.94;50.49;100317.88;1733084;82;21212;-55
2021/03/05 11:49:44;;;;;;;25.80;14.53;;;;;;;9.04;50.52;100328.12;1703211;82;21211;-56
2021/03/05 11:52:49;;;;;;;27.52;14.33;;;;;;;9.12;50.16;100335.50;1713144;82;21761;-55
2021/03/05 11:55:55;;;;;;;29.45;15.28;;;;;;;9.10;49.74;100341.95;1784674;79;21331;-55
2021/03/05 11:59:01;;;;;;;28.80;15.63;;;;;;;9.15;49.59;100345.55;1777940;79;21832;-55
2021/03/05 12:02:07;;;;;;;27.48;14.50;;;;;;;9.16;49.29;100345.05;1784053;79;21939;-55
2021/03/05 12:05:15;;;;;;;25.85;13.93;;;;;;;9.13;49.37;100369.97;1754958;80;21702;-55
2021/03/05 12:08:22;;;;;;;24.77;12.55;;;;;;;8.96;49.14;100376.73;1756860;80;21344;-54
2021/03/05 12:11:27;;;;;;;28.90;12.90;;;;;;;8.82;49.27;100377.88;1762997;79;21212;-54
2021/03/05 12:14:32;;;;;;;29.20;14.98;;;;;;;8.72;49.69;100379.37;1752915;79;21220;-54
2021/03/05 12:17:38;;;;;;;26.82;14.87;;;;;;;8.64;50.36;100375.23;1739274;82;21594;-54
2021/03/05 12:20:44;;;;;;;28.12;14.18;;;;;;;8.57;50.82;100386.48;1755717;80;21667;-55
2021/03/05 12:23:49;;;;;;;24.55;13.83;;;;;;;8.54;50.88;100381.84;1733811;82;21235;-54
2021/03/05 12:26:53;;;;;;;25.08;13.88;;;;;;;8.48;50.67;100380.61;1734773;82;21239;-54
2021/03/05 12:29:59;;;;;;;26.90;13.80;;;;;;;8.37;50.91;100384.15;1770051;80;21240;-54
2021/03/05 12:33:05;;;;;;;26.33;14.47;;;;;;;8.26;50.91;100380.34;1770109;80;21197;-56
2021/03/05 12:36:12;;;;;;;28.73;13.93;;;;;;;8.11;51.16;100381.89;1734504;82;21178;-54
2021/03/05 12:39:18;;;;;;;26.37;13.40;;;;;;;7.92;51.45;100379.37;1769389;80;21758;-55
2021/03/05 12:42:24;;;;;;;28.32;15.20;;;;;;;7.63;52.09;100382.90;1756808;80;21753;-54
2021/03/05 12:45:30;;;;;;;27.77;14.38;;;;;;;7.52;52.34;100390.78;1756376;81;21235;-55
2021/03/05 12:48:36;;;;;;;25.82;14.20;;;;;;;7.54;52.47;100399.66;1757091;81;21762;-55
2021/03/05 12:51:44;;;;;;;25.80;13.45;;;;;;;7.60;52.56;100404.48;1757331;81;21204;-55
2021/03/05 12:54:51;;;;;;;26.02;13.25;;;;;;;7.68;52.66;100406.41;1757215;81;21373;-54
2021/03/05 12:57:56;;;;;;;30.40;13.90;;;;;;;7.72;52.69;100414.64;1757224;81;21184;-54
2021/03/05 13:01:02;;;;;;;25.68;14.10;;;;;;;7.69;52.77;100414.43;1756916;81;21176;-53
2021/03/05 13:04:08;;;;;;;27.10;14.87;;;;;;;7.59;53.05;100405.50;1757322;80;21215;-55
2021/03/05 13:07:14;;;;;;;31.50;15.30;;;;;;;7.54;53.16;100418.23;1771685;80;21286;-54
2021/03/05 13:10:21;;;;;;;28.35;14.85;;;;;;;7.53;53.27;100409.69;1772206;81;21330;-55
2021/03/05 13:13:28;;;;;;;30.68;14.70;;;;;;;7.47;53.37;100402.16;1771988;80;21234;-54
2021/03/05 13:16:35;;;;;;;30.55;14.78;;;;;;;7.41;53.71;100390.53;1772140;81;21831;-54
2021/03/05 13:19:41;;;;;;;25.82;13.65;;;;;;;7.32;53.94;100405.58;1772355;81;21183;-54
2021/03/05 13:22:46;;;;;;;25.55;14.70;;;;;;;7.29;54.11;100399.92;1772804;80;21356;-54
2021/03/05 13:25:53;;;;;;;34.35;19.27;;;;;;;7.28;54.23;100414.55;1773019;80;21886;-55
2021/03/05 13:28:59;;;;;;;32.53;16.45;;;;;;;7.32;54.36;100415.11;1780123;80;21186;-54
2021/03/05 13:32:06;;;;;;;32.75;17.70;;;;;;;7.29;54.38;100418.97;1788764;80;21343;-54
2021/03/05 13:35:13;;;;;;;32.73;15.48;;;;;;;7.26;54.58;100427.98;1791476;80;21264;-54
2021/03/05 13:38:18;;;;;;;33.40;20.15;;;;;;;7.22;54.73;100439.67;1791638;80;21371;-55
2021/03/05 13:41:25;;;;;;;39.70;21.70;;;;;;;7.17;54.92;100437.05;1789175;80;21188;-54
2021/03/05 13:44:31;;;;;;;38.67;20.32;;;;;;;7.11;55.13;100429.00;1788976;80;21847;-55
2021/03/05 13:47:38;;;;;;;34.45;19.48;;;;;;;7.09;55.39;100430.14;1788681;80;21880;-55
2021/03/05 13:50:47;;;;;;;36.25;19.05;;;;;;;7.11;55.38;100437.17;1788918;80;21288;-54
2021/03/05 13:53:54;;;;;;;36.60;18.98;;;;;;;7.14;55.43;100442.30;1775134;79;21336;-56
2021/03/05 13:57:00;;;;;;;36.58;19.42;;;;;;;7.12;55.48;100436.15;1773953;79;21912;-55
2021/03/05 14:00:06;;;;;;;37.67;19.40;;;;;;;7.10;55.67;100435.96;1771966;79;21927;-54
2021/03/05 14:03:12;;;;;;;38.65;20.27;;;;;;;7.05;55.76;100428.26;1753141;81;21739;-54
2021/03/05 14:06:18;;;;;;;41.33;21.45;;;;;;;7.01;55.85;100428.19;1795848;80;21958;-54
2021/03/05 14:09:23;;;;;;;60.85;27.80;;;;;;;6.96;56.01;100425.06;1798499;79;21169;-54
2021/03/05 14:12:27;;;;;;;103.92;41.92;;;;;;;6.94;56.18;100424.88;1771302;79;21367;-54
2021/03/05 14:15:33;;;;;;;55.90;27.05;;;;;;;6.91;56.32;100428.74;1745576;81;21241;-54
2021/03/05 14:18:42;;;;;;;120.62;48.33;;;;;;;6.90;56.29;100424.81;1797492;79;21244;-53
2021/03/05 14:21:46;;;;;;;120.22;50.58;;;;;;;6.93;56.29;100415.02;1802007;79;21323;-54
2021/03/05 14:24:52;;;;;;;125.82;53.68;;;;;;;6.89;56.33;100417.17;1803031;79;21881;-55
2021/03/05 14:27:59;;;;;;;72.78;35.40;;;;;;;6.90;56.49;100424.81;1803148;79;21362;-54